Time;durP1;ratioP1;P1;durP2;ratioP2;P2;SDS_P1;SDS_P2;PMS_P1;PMS_P2;Temp;Humidity;BMP_temperature;BMP_pressure;BME280_temperature;BME280_humidity;BME280_pressure;Samples;Min_cycle;Max_cycle;Signal;HPM_P1;HPM_P2
2021/09/01 04:50:26;;;;;;;19.25;11.95;;;;;;;;;;5973380;23;20033;-68
2021/09/01 04:52:53;;;;;;;19.13;12.35;;;;;;;;;;4952998;28;20158;-68
2021/09/01 04:55:21;;;;;;;18.50;11.48;;;;;;;;;;4970319;28;20246;-68
2021/09/01 04:57:48;;;;;;;15.68;11.60;;;;;;;;;;4975398;28;20042;-67
2021/09/01 05:00:16;;;;;;;17.00;11.70;;;;;;;;;;4971612;28;20522;-68
2021/09/01 05:02:43;;;;;;;20.75;12.13;;;;;;;;;;4949415;28;20050;-68
2021/09/01 05:05:11;;;;;;;17.15;11.40;;;;;;;;;;4996464;23;20522;-68
2021/09/01 05:07:39;;;;;;;14.98;10.45;;;;;;;;;;4976354;28;20121;-69
2021/09/01 05:10:07;;;;;;;15.93;10.93;;;;;;;;;;4977826;28;20405;-68
2021/09/01 05:12:34;;;;;;;15.50;10.20;;;;;;;;;;4984783;28;20399;-69
2021/09/01 05:15:01;;;;;;;18.63;10.93;;;;;;;;;;4978563;28;20047;-70
2021/09/01 05:17:29;;;;;;;16.48;11.15;;;;;;;;;;4970542;28;20088;-71
2021/09/01 05:19:56;;;;;;;19.50;10.07;;;;;;;;;;4943978;29;20450;-70
2021/09/01 05:22:24;;;;;;;15.35;10.07;;;;;;;;;;4947613;28;20665;-70
2021/09/01 05:25:01;;;;;;;19.95;10.40;;;;;;;;;;4971452;28;20434;-71
2021/09/01 05:27:29;;;;;;;18.65;10.43;;;;;;;;;;4969211;28;20047;-71
2021/09/01 05:29:56;;;;;;;15.20;9.32;;;;;;;;;;4964560;28;20054;-70
2021/09/01 05:32:24;;;;;;;18.70;9.80;;;;;;;;;;4959848;28;20126;-71
2021/09/01 05:34:53;;;;;;;13.93;8.95;;;;;;;;;;4968199;28;20404;-72
2021/09/01 05:37:20;;;;;;;16.42;9.15;;;;;;;;;;4969424;28;20414;-71
2021/09/01 05:39:48;;;;;;;13.48;8.55;;;;;;;;;;4960669;28;20067;-71
2021/09/01 05:42:18;;;;;;;14.98;8.30;;;;;;;;;;4965749;28;20105;-70
2021/09/01 05:44:46;;;;;;;12.85;8.35;;;;;;;;;;4969005;28;20053;-70
2021/09/01 05:47:14;;;;;;;12.60;7.35;;;;;;;;;;4968105;28;20043;-70
2021/09/01 05:49:42;;;;;;;18.40;8.15;;;;;;;;;;4943244;28;20510;-70
2021/09/01 05:52:11;;;;;;;10.38;6.95;;;;;;;;;;4967932;28;20035;-70
2021/09/01 05:54:40;;;;;;;11.80;7.28;;;;;;;;;;4958815;28;20043;-70
2021/09/01 05:57:09;;;;;;;10.43;6.88;;;;;;;;;;4948158;28;20047;-71
2021/09/01 05:59:41;;;;;;;11.68;7.15;;;;;;;;;;4961951;28;20062;-72
2021/09/01 06:02:09;;;;;;;11.15;6.40;;;;;;;;;;4972303;28;20053;-71
2021/09/01 06:04:39;;;;;;;12.20;6.95;;;;;;;;;;4959967;28;20055;-72
2021/09/01 06:07:12;;;;;;;11.20;6.78;;;;;;;;;;4949417;28;20043;-70
2021/09/01 06:09:41;;;;;;;14.13;7.05;;;;;;;;;;4921862;29;20101;-70
2021/09/01 06:12:09;;;;;;;7.93;6.15;;;;;;;;;;4952145;28;20455;-72
2021/09/01 06:14:36;;;;;;;16.13;7.05;;;;;;;;;;4945914;29;20419;-72
2021/09/01 06:17:05;;;;;;;10.20;7.68;;;;;;;;;;4930668;29;20046;-72
2021/09/01 06:19:32;;;;;;;13.52;7.07;;;;;;;;;;4942750;29;20393;-71
2021/09/01 06:22:00;;;;;;;9.00;6.75;;;;;;;;;;4947827;29;20571;-71
2021/09/01 06:24:27;;;;;;;12.07;7.10;;;;;;;;;;4948060;29;20039;-71
2021/09/01 06:26:54;;;;;;;15.73;7.07;;;;;;;;;;4945553;28;20040;-70
2021/09/01 06:29:21;;;;;;;12.02;8.02;;;;;;;;;;4952079;29;20067;-74
2021/09/01 06:31:49;;;;;;;9.88;6.88;;;;;;;;;;4933521;29;20483;-73
2021/09/01 06:34:17;;;;;;;10.50;7.05;;;;;;;;;;4947636;29;20126;-71
2021/09/01 06:36:45;;;;;;;12.10;7.20;;;;;;;;;;4947572;29;20051;-71
2021/09/01 06:39:12;;;;;;;9.63;7.28;;;;;;;;;;4949159;29;20065;-74
2021/09/01 06:41:40;;;;;;;12.05;7.20;;;;;;;;;;4950055;29;20118;-72
2021/09/01 06:44:08;;;;;;;11.90;7.00;;;;;;;;;;4948591;28;20053;-72
2021/09/01 06:46:35;;;;;;;12.85;7.70;;;;;;;;;;4930910;29;20126;-70
2021/09/01 06:49:02;;;;;;;10.52;6.80;;;;;;;;;;4946389;29;20047;-72
2021/09/01 06:51:31;;;;;;;12.40;7.63;;;;;;;;;;4945890;28;20039;-70
2021/09/01 06:53:58;;;;;;;14.88;7.93;;;;;;;;;;4948588;28;20047;-72
2021/09/01 06:56:25;;;;;;;11.70;6.97;;;;;;;;;;4949804;28;20039;-73
2021/09/01 06:58:53;;;;;;;12.07;7.55;;;;;;;;;;4948991;28;20054;-72
2021/09/01 07:01:20;;;;;;;11.57;7.68;;;;;;;;;;4944996;28;20044;-73
2021/09/01 07:03:48;;;;;;;15.75;7.53;;;;;;;;;;4950375;28;20167;-72
2021/09/01 07:06:16;;;;;;;16.05;8.18;;;;;;;;;;4948811;29;20513;-72
2021/09/01 07:08:56;;;;;;;15.35;8.02;;;;;;;;;;4931863;29;20110;-71
2021/09/01 07:11:24;;;;;;;12.30;8.27;;;;;;;;;;4952428;29;20063;-71
2021/09/01 07:13:52;;;;;;;10.95;7.95;;;;;;;;;;4932198;28;20431;-71
2021/09/01 07:16:19;;;;;;;13.90;8.18;;;;;;;;;;4945583;28;20050;-73
2021/09/01 07:18:46;;;;;;;11.43;8.13;;;;;;;;;;4950398;29;20553;-70
2021/09/01 07:21:13;;;;;;;15.88;9.20;;;;;;;;;;4951174;28;20415;-71
2021/09/01 07:23:41;;;;;;;13.35;9.15;;;;;;;;;;4947568;28;20459;-70
2021/09/01 07:26:10;;;;;;;13.38;8.60;;;;;;;;;;4936910;29;20126;-71
2021/09/01 07:28:38;;;;;;;14.05;8.93;;;;;;;;;;4950886;29;20291;-71
2021/09/01 07:31:06;;;;;;;15.27;9.00;;;;;;;;;;4946782;29;20418;-71
2021/09/01 07:33:33;;;;;;;16.70;9.68;;;;;;;;;;4928301;29;20332;-71
2021/09/01 07:36:03;;;;;;;15.05;9.20;;;;;;;;;;4950345;28;20043;-71
2021/09/01 07:38:31;;;;;;;15.02;9.10;;;;;;;;;;4946304;28;20047;-71
2021/09/01 07:40:58;;;;;;;18.98;9.15;;;;;;;;;;4944461;29;20046;-72
2021/09/01 07:43:28;;;;;;;19.15;9.30;;;;;;;;;;4950249;28;20047;-72
2021/09/01 07:45:55;;;;;;;13.15;9.00;;;;;;;;;;4947560;28;20053;-71
2021/09/01 07:48:22;;;;;;;14.15;8.32;;;;;;;;;;4946441;29;20042;-71
2021/09/01 07:50:51;;;;;;;12.55;8.98;;;;;;;;;;4949408;29;20122;-73
2021/09/01 07:53:18;;;;;;;16.85;8.50;;;;;;;;;;4944646;29;20419;-71
2021/09/01 07:55:46;;;;;;;13.05;8.02;;;;;;;;;;4942973;29;20082;-71
2021/09/01 07:58:13;;;;;;;13.90;9.30;;;;;;;;;;4949551;29;20046;-71
2021/09/01 08:00:42;;;;;;;11.95;8.32;;;;;;;;;;4948793;28;20050;-72
2021/09/01 08:03:09;;;;;;;16.05;8.52;;;;;;;;;;4946252;29;20043;-72
2021/09/01 08:05:37;;;;;;;18.95;9.30;;;;;;;;;;4938247;28;20503;-71
2021/09/01 08:08:04;;;;;;;16.13;9.50;;;;;;;;;;4952693;28;20043;-71
2021/09/01 08:10:32;;;;;;;14.00;8.82;;;;;;;;;;4932213;29;20039;-71
2021/09/01 08:12:59;;;;;;;11.88;9.38;;;;;;;;;;4952385;28;20043;-72
2021/09/01 08:15:26;;;;;;;11.15;9.30;;;;;;;;;;4950296;28;20136;-71
2021/09/01 08:17:55;;;;;;;17.08;9.45;;;;;;;;;;4948200;28;20132;-72
2021/09/01 08:20:22;;;;;;;19.80;9.60;;;;;;;;;;4951389;28;20503;-71
2021/09/01 08:22:50;;;;;;;15.98;10.35;;;;;;;;;;4950394;28;20122;-71
2021/09/01 08:25:17;;;;;;;17.15;10.90;;;;;;;;;;4938363;28;20050;-72
2021/09/01 08:27:46;;;;;;;20.77;10.00;;;;;;;;;;4952424;28;20122;-72
2021/09/01 08:30:14;;;;;;;14.25;9.00;;;;;;;;;;4963821;28;20102;-72
2021/09/01 08:32:41;;;;;;;16.77;9.82;;;;;;;;;;4949827;28;20130;-70
2021/09/01 08:35:10;;;;;;;17.33;9.63;;;;;;;;;;4952374;28;20042;-71
2021/09/01 08:37:38;;;;;;;15.68;10.30;;;;;;;;;;4960620;28;20045;-71
2021/09/01 08:40:06;;;;;;;14.85;9.80;;;;;;;;;;4950437;28;20086;-71
2021/09/01 08:42:34;;;;;;;16.65;9.73;;;;;;;;;;4949013;28;20074;-71
2021/09/01 08:45:01;;;;;;;18.73;11.00;;;;;;;;;;4958381;28;20050;-73
2021/09/01 08:47:29;;;;;;;20.50;10.07;;;;;;;;;;4951637;28;20039;-71
2021/09/01 08:49:56;;;;;;;15.75;9.70;;;;;;;;;;4950212;28;20057;-72
2021/09/01 08:52:25;;;;;;;16.65;9.85;;;;;;;;;;4959063;28;20295;-71
2021/09/01 08:54:53;;;;;;;15.25;9.98;;;;;;;;;;4951502;28;20062;-72
2021/09/01 08:57:20;;;;;;;16.20;9.40;;;;;;;;;;4950553;28;20039;-72
2021/09/01 08:59:47;;;;;;;16.83;9.88;;;;;;;;;;4950253;28;20131;-72
2021/09/01 09:02:14;;;;;;;20.85;9.55;;;;;;;;;;4950038;28;20048;-72
2021/09/01 09:04:42;;;;;;;13.00;8.68;;;;;;;;;;4928659;29;20059;-71
2021/09/01 09:07:09;;;;;;;13.07;8.25;;;;;;;;;;4949929;28;20039;-72
2021/09/01 09:09:40;;;;;;;16.73;8.45;;;;;;;;;;4951347;28;20131;-73
2021/09/01 09:12:08;;;;;;;15.23;8.65;;;;;;;;;;4951108;28;20051;-72
2021/09/01 09:14:37;;;;;;;21.35;9.75;;;;;;;;;;4947164;28;20047;-72
2021/09/01 09:17:06;;;;;;;14.85;8.32;;;;;;;;;;4955343;28;20031;-73
2021/09/01 09:19:47;;;;;;;13.27;8.52;;;;;;;;;;4936883;28;20046;-71
2021/09/01 09:22:15;;;;;;;12.88;7.97;;;;;;;;;;4935872;28;20057;-73
2021/09/01 09:24:44;;;;;;;17.40;7.40;;;;;;;;;;4952060;28;20043;-71
2021/09/01 09:27:11;;;;;;;13.35;8.13;;;;;;;;;;4955296;28;20451;-74
2021/09/01 09:29:39;;;;;;;12.82;8.20;;;;;;;;;;4934544;28;20145;-73
2021/09/01 09:32:07;;;;;;;18.65;8.55;;;;;;;;;;4954184;28;20118;-73
2021/09/01 09:34:37;;;;;;;13.93;8.60;;;;;;;;;;4955107;28;20043;-73
2021/09/01 09:37:05;;;;;;;13.35;7.45;;;;;;;;;;4956142;28;20447;-74
2021/09/01 09:39:44;;;;;;;14.35;8.38;;;;;;;;;;4968479;28;20103;-73
2021/09/01 09:42:11;;;;;;;11.48;8.10;;;;;;;;;;4967652;28;20061;-72
2021/09/01 09:44:39;;;;;;;11.98;7.40;;;;;;;;;;4959376;28;20046;-72
2021/09/01 09:47:06;;;;;;;12.38;7.45;;;;;;;;;;4954222;28;20047;-73
2021/09/01 09:49:34;;;;;;;12.43;7.50;;;;;;;;;;4950639;28;20043;-72
2021/09/01 09:52:13;;;;;;;14.90;7.60;;;;;;;;;;4958327;28;20057;-73
2021/09/01 09:54:41;;;;;;;13.00;7.35;;;;;;;;;;4953621;28;20035;-73
2021/09/01 09:57:10;;;;;;;14.52;7.38;;;;;;;;;;4937737;28;20047;-73
2021/09/01 09:59:37;;;;;;;13.18;7.60;;;;;;;;;;4951111;28;20058;-73
2021/09/01 10:02:05;;;;;;;16.08;7.97;;;;;;;;;;4954235;28;20126;-72
2021/09/01 10:04:33;;;;;;;13.18;7.22;;;;;;;;;;4940012;28;20062;-71
2021/09/01 10:07:00;;;;;;;10.40;6.35;;;;;;;;;;4969148;28;20049;-72
2021/09/01 10:09:27;;;;;;;14.63;7.55;;;;;;;;;;4965240;28;20059;-73
2021/09/01 10:11:55;;;;;;;10.70;6.32;;;;;;;;;;4968807;28;20518;-70
2021/09/01 10:14:24;;;;;;;17.08;6.25;;;;;;;;;;4971271;28;20046;-70
2021/09/01 10:16:55;;;;;;;13.07;8.23;;;;;;;;;;4968573;28;20054;-71
2021/09/01 10:19:26;;;;;;;11.27;7.00;;;;;;;;;;4968811;28;20062;-70
2021/09/01 10:21:54;;;;;;;13.15;7.03;;;;;;;;;;4971437;28;20459;-73
2021/09/01 10:24:24;;;;;;;15.93;7.07;;;;;;;;;;4970691;28;20057;-73
2021/09/01 10:27:02;;;;;;;15.95;8.05;;;;;;;;;;4968275;28;20385;-71
2021/09/01 10:29:44;;;;;;;14.63;8.40;;;;;;;;;;4969949;28;20039;-71
2021/09/01 10:32:18;;;;;;;13.38;7.03;;;;;;;;;;4970169;28;20047;-71
2021/09/01 10:34:46;;;;;;;14.77;7.63;;;;;;;;;;4970139;28;20073;-71
2021/09/01 10:37:37;;;;;;;13.23;7.43;;;;;;;;;;4968530;28;20039;-72
2021/09/01 10:40:05;;;;;;;12.73;7.78;;;;;;;;;;4951875;28;20084;-70
2021/09/01 10:42:39;;;;;;;14.65;7.82;;;;;;;;;;4971073;28;20047;-71
2021/09/01 10:45:09;;;;;;;10.30;7.13;;;;;;;;;;4969955;28;20521;-70
2021/09/01 10:47:55;;;;;;;14.05;7.50;;;;;;;;;;4966989;28;20173;-71
2021/09/01 10:50:31;;;;;;;12.43;6.90;;;;;;;;;;4964256;28;20496;-70
2021/09/01 10:52:58;;;;;;;12.48;7.13;;;;;;;;;;4965498;28;20280;-70
2021/09/01 10:55:27;;;;;;;13.55;7.15;;;;;;;;;;4966487;28;20079;-70
2021/09/01 10:58:13;;;;;;;10.80;6.80;;;;;;;;;;4966494;28;20162;-70
2021/09/01 11:00:42;;;;;;;15.10;7.00;;;;;;;;;;4968149;28;20038;-75
2021/09/01 11:03:09;;;;;;;10.07;6.82;;;;;;;;;;4966983;28;20046;-71
2021/09/01 11:05:37;;;;;;;11.82;6.25;;;;;;;;;;4977752;23;20042;-70
2021/09/01 11:08:04;;;;;;;10.60;6.13;;;;;;;;;;4985531;28;20127;-69
2021/09/01 11:10:32;;;;;;;13.70;6.57;;;;;;;;;;4968043;28;20053;-69
2021/09/01 11:13:00;;;;;;;14.07;7.30;;;;;;;;;;4986623;28;20046;-68
2021/09/01 11:15:27;;;;;;;13.10;6.53;;;;;;;;;;4982291;28;20298;-68
2021/09/01 11:18:08;;;;;;;15.00;7.40;;;;;;;;;;4984885;28;20043;-69
2021/09/01 11:20:35;;;;;;;11.55;6.68;;;;;;;;;;4974072;28;20098;-69
2021/09/01 11:23:03;;;;;;;11.73;6.10;;;;;;;;;;4972194;28;20476;-70
2021/09/01 11:25:30;;;;;;;13.70;6.35;;;;;;;;;;4955213;28;20047;-69
2021/09/01 11:27:58;;;;;;;11.00;6.35;;;;;;;;;;4967285;28;20048;-69
2021/09/01 11:30:31;;;;;;;10.18;6.05;;;;;;;;;;4967966;28;20129;-69
2021/09/01 11:32:59;;;;;;;12.73;6.95;;;;;;;;;;4971536;28;20051;-70
2021/09/01 11:35:29;;;;;;;10.82;6.30;;;;;;;;;;4972207;28;20046;-69
2021/09/01 11:37:57;;;;;;;17.33;6.60;;;;;;;;;;4954991;28;20141;-69
2021/09/01 11:40:31;;;;;;;11.40;6.32;;;;;;;;;;4971983;28;20038;-68
2021/09/01 11:42:59;;;;;;;12.05;6.40;;;;;;;;;;4971845;28;20407;-68
2021/09/01 11:45:26;;;;;;;12.05;5.78;;;;;;;;;;4971963;28;20039;-69
2021/09/01 11:47:59;;;;;;;9.43;5.28;;;;;;;;;;4970711;28;20525;-69
2021/09/01 11:50:27;;;;;;;12.23;6.13;;;;;;;;;;4970609;28;20039;-72
2021/09/01 11:52:56;;;;;;;8.45;5.60;;;;;;;;;;4970474;28;20047;-72
2021/09/01 11:55:24;;;;;;;11.32;5.60;;;;;;;;;;4953835;28;20078;-71
2021/09/01 11:57:52;;;;;;;11.43;5.55;;;;;;;;;;4966770;28;20052;-72
2021/09/01 12:00:19;;;;;;;11.85;6.72;;;;;;;;;;4966124;28;20039;-71
2021/09/01 12:02:50;;;;;;;11.10;5.82;;;;;;;;;;4950107;28;20047;-72
2021/09/01 12:05:29;;;;;;;13.95;5.60;;;;;;;;;;4970642;28;20589;-72
2021/09/01 12:07:57;;;;;;;12.95;5.45;;;;;;;;;;4972340;28;20039;-71
2021/09/01 12:10:28;;;;;;;11.48;6.18;;;;;;;;;;4968089;28;20558;-72
2021/09/01 12:13:01;;;;;;;12.48;5.72;;;;;;;;;;4963715;28;20058;-71
2021/09/01 12:15:28;;;;;;;13.20;6.43;;;;;;;;;;4959847;28;20057;-72
2021/09/01 12:18:02;;;;;;;15.70;6.15;;;;;;;;;;4972265;28;20053;-71
2021/09/01 12:20:33;;;;;;;11.88;4.97;;;;;;;;;;4971863;28;20050;-71
2021/09/01 12:23:07;;;;;;;10.27;4.97;;;;;;;;;;4954906;28;20043;-71
2021/09/01 12:25:38;;;;;;;6.93;4.72;;;;;;;;;;4970912;28;20039;-71
2021/09/01 12:28:08;;;;;;;9.32;4.95;;;;;;;;;;4971326;28;20057;-72
2021/09/01 12:30:36;;;;;;;10.65;4.85;;;;;;;;;;4970811;28;20053;-71
2021/09/01 12:33:04;;;;;;;10.10;5.43;;;;;;;;;;4971882;28;20498;-72
2021/09/01 12:35:33;;;;;;;10.85;5.18;;;;;;;;;;4968313;28;20394;-72
2021/09/01 12:38:03;;;;;;;7.95;5.13;;;;;;;;;;4970264;28;20070;-71
2021/09/01 12:40:31;;;;;;;9.18;5.00;;;;;;;;;;4969341;28;20141;-71
2021/09/01 12:43:00;;;;;;;22.67;5.40;;;;;;;;;;4970974;28;20043;-71
2021/09/01 12:45:29;;;;;;;12.15;5.28;;;;;;;;;;4968907;28;20048;-71
2021/09/01 12:47:57;;;;;;;9.20;4.97;;;;;;;;;;4953541;28;20415;-71
2021/09/01 12:50:29;;;;;;;11.43;4.70;;;;;;;;;;4970979;28;20050;-72
2021/09/01 12:52:56;;;;;;;8.90;4.90;;;;;;;;;;4971054;28;20034;-71
2021/09/01 12:55:28;;;;;;;8.95;5.28;;;;;;;;;;4973146;28;20518;-71
2021/09/01 12:57:55;;;;;;;9.20;5.22;;;;;;;;;;4974734;28;20061;-71
2021/09/01 13:00:22;;;;;;;7.72;4.55;;;;;;;;;;4973545;28;20042;-71
2021/09/01 13:02:50;;;;;;;7.97;4.72;;;;;;;;;;4974651;28;20043;-71
2021/09/01 13:05:17;;;;;;;12.15;5.65;;;;;;;;;;4957707;28;20059;-71
2021/09/01 13:07:45;;;;;;;9.63;5.65;;;;;;;;;;4974582;28;20045;-70
2021/09/01 13:10:12;;;;;;;11.48;5.22;;;;;;;;;;4956695;28;20483;-71
2021/09/01 13:12:42;;;;;;;8.90;5.45;;;;;;;;;;4975233;28;20581;-71
2021/09/01 13:15:11;;;;;;;9.43;5.15;;;;;;;;;;4973261;28;20057;-71
2021/09/01 13:17:42;;;;;;;10.20;4.63;;;;;;;;;;4956115;28;20073;-70
2021/09/01 13:20:11;;;;;;;7.20;4.25;;;;;;;;;;4965471;28;20129;-70
2021/09/01 13:22:38;;;;;;;6.18;4.35;;;;;;;;;;4957881;28;20063;-70
2021/09/01 13:25:06;;;;;;;7.18;4.53;;;;;;;;;;4962407;28;20061;-71
2021/09/01 13:27:34;;;;;;;10.00;4.80;;;;;;;;;;4978245;28;20038;-71
2021/09/01 13:30:03;;;;;;;11.50;4.60;;;;;;;;;;4956189;28;20043;-71
2021/09/01 13:32:31;;;;;;;8.10;4.20;;;;;;;;;;4956609;28;20142;-71
2021/09/01 13:34:58;;;;;;;9.10;4.28;;;;;;;;;;4974433;28;20047;-71
2021/09/01 13:37:25;;;;;;;8.15;4.30;;;;;;;;;;4969819;28;20064;-70
2021/09/01 13:39:52;;;;;;;7.03;4.80;;;;;;;;;;4973952;28;20038;-70
2021/09/01 13:42:20;;;;;;;8.45;4.15;;;;;;;;;;4971772;28;20050;-70
2021/09/01 13:44:48;;;;;;;5.93;4.25;;;;;;;;;;4974255;28;20047;-71
2021/09/01 13:47:16;;;;;;;9.35;4.80;;;;;;;;;;4973645;28;20039;-70
2021/09/01 13:49:45;;;;;;;7.28;4.45;;;;;;;;;;4973119;28;20138;-70
2021/09/01 13:52:12;;;;;;;10.27;4.57;;;;;;;;;;4972435;28;21821;-68
2021/09/01 13:54:39;;;;;;;10.27;7.32;;;;;;;;;;4973648;28;20402;-68
2021/09/01 13:57:07;;;;;;;8.23;4.47;;;;;;;;;;4974137;28;20038;-67
2021/09/01 13:59:34;;;;;;;6.78;3.97;;;;;;;;;;4973105;28;20431;-67
2021/09/01 14:02:01;;;;;;;6.55;4.20;;;;;;;;;;4971017;28;20699;-67
2021/09/01 14:04:30;;;;;;;8.00;4.43;;;;;;;;;;4971160;28;20055;-67
2021/09/01 14:06:57;;;;;;;9.75;4.35;;;;;;;;;;4973082;28;20034;-67
2021/09/01 14:09:24;;;;;;;8.85;4.32;;;;;;;;;;4972528;28;20042;-67
2021/09/01 14:11:52;;;;;;;10.90;5.00;;;;;;;;;;4973383;28;20673;-66
2021/09/01 14:14:19;;;;;;;7.57;4.78;;;;;;;;;;4971788;28;20038;-67
2021/09/01 14:16:46;;;;;;;6.82;4.82;;;;;;;;;;4973996;28;20078;-68
2021/09/01 14:19:14;;;;;;;9.13;4.68;;;;;;;;;;4972881;28;20027;-68
2021/09/01 14:21:42;;;;;;;8.07;4.93;;;;;;;;;;4972509;28;20053;-72
2021/09/01 14:24:10;;;;;;;12.10;5.05;;;;;;;;;;4957729;28;20047;-71
2021/09/01 14:26:37;;;;;;;14.38;5.15;;;;;;;;;;4955665;28;20141;-72
2021/09/01 14:29:04;;;;;;;7.65;5.07;;;;;;;;;;4971724;28;20053;-72
2021/09/01 14:31:32;;;;;;;7.97;4.53;;;;;;;;;;4972318;28;20085;-71
2021/09/01 14:33:59;;;;;;;9.70;5.18;;;;;;;;;;4973418;28;20043;-72
2021/09/01 14:36:26;;;;;;;7.90;4.97;;;;;;;;;;4972390;28;20057;-71
2021/09/01 14:38:55;;;;;;;9.82;4.80;;;;;;;;;;4972922;28;20050;-70
2021/09/01 14:41:22;;;;;;;7.38;4.90;;;;;;;;;;4970927;28;20066;-71
2021/09/01 14:43:49;;;;;;;6.60;4.57;;;;;;;;;;4971018;28;20046;-70
2021/09/01 14:46:16;;;;;;;8.63;4.50;;;;;;;;;;4972094;28;20057;-72
2021/09/01 14:48:44;;;;;;;9.02;4.60;;;;;;;;;;4973483;28;20046;-72
2021/09/01 14:51:11;;;;;;;8.32;4.53;;;;;;;;;;4972753;28;20039;-71
2021/09/01 14:53:38;;;;;;;7.78;4.47;;;;;;;;;;4968716;28;20557;-72
2021/09/01 14:56:07;;;;;;;7.72;4.03;;;;;;;;;;4965479;28;20478;-72
2021/09/01 14:58:34;;;;;;;7.35;4.25;;;;;;;;;;4971730;28;20057;-73
2021/09/01 15:01:01;;;;;;;6.80;4.50;;;;;;;;;;4969686;28;20049;-72
2021/09/01 15:03:29;;;;;;;7.68;4.15;;;;;;;;;;4971877;28;20395;-71
2021/09/01 15:05:57;;;;;;;5.90;3.80;;;;;;;;;;4972882;28;20578;-73
2021/09/01 15:08:25;;;;;;;7.53;4.38;;;;;;;;;;4971297;28;20070;-72
2021/09/01 15:10:53;;;;;;;5.07;4.20;;;;;;;;;;4972983;28;20043;-72
2021/09/01 15:13:22;;;;;;;8.55;4.85;;;;;;;;;;4971858;28;20074;-72
2021/09/01 15:15:50;;;;;;;7.65;3.90;;;;;;;;;;4971294;28;20043;-72
2021/09/01 15:18:18;;;;;;;6.97;4.28;;;;;;;;;;4979753;28;20035;-72
2021/09/01 15:20:45;;;;;;;5.75;4.05;;;;;;;;;;4972023;28;20074;-73
2021/09/01 15:23:13;;;;;;;9.60;4.07;;;;;;;;;;4971256;28;20046;-73
2021/09/01 15:25:40;;;;;;;8.60;4.35;;;;;;;;;;4956570;28;20134;-73
2021/09/01 15:28:08;;;;;;;5.80;4.28;;;;;;;;;;4973826;28;20069;-74
2021/09/01 15:30:37;;;;;;;6.72;4.28;;;;;;;;;;4977933;28;20451;-74
2021/09/01 15:33:04;;;;;;;6.82;4.28;;;;;;;;;;4970238;28;20042;-74
2021/09/01 15:35:31;;;;;;;5.43;4.50;;;;;;;;;;4970028;28;20043;-75
2021/09/01 15:37:59;;;;;;;5.68;4.20;;;;;;;;;;4954125;28;20507;-74
2021/09/01 15:40:27;;;;;;;10.13;5.03;;;;;;;;;;4950272;28;20129;-75
2021/09/01 15:42:55;;;;;;;5.95;4.00;;;;;;;;;;4953204;28;20097;-75
2021/09/01 15:45:23;;;;;;;6.13;4.35;;;;;;;;;;4971079;28;20133;-75
2021/09/01 15:47:56;;;;;;;8.25;4.65;;;;;;;;;;4969815;28;20062;-75
2021/09/01 15:50:24;;;;;;;9.07;4.65;;;;;;;;;;4970366;28;20542;-74
2021/09/01 15:52:52;;;;;;;7.43;4.88;;;;;;;;;;4971372;28;20074;-75
2021/09/01 15:55:21;;;;;;;7.78;4.68;;;;;;;;;;4971445;28;20118;-75
2021/09/01 15:57:49;;;;;;;7.95;4.68;;;;;;;;;;4972382;28;20066;-75
2021/09/01 16:00:17;;;;;;;8.65;4.60;;;;;;;;;;4970680;28;20053;-75
2021/09/01 16:02:44;;;;;;;14.07;5.35;;;;;;;;;;4972921;28;20045;-74
2021/09/01 16:05:13;;;;;;;9.52;4.63;;;;;;;;;;4970792;28;20097;-74
2021/09/01 16:07:40;;;;;;;7.50;4.72;;;;;;;;;;4954058;28;20046;-74
2021/09/01 16:10:11;;;;;;;7.10;4.28;;;;;;;;;;4973006;28;20427;-74
2021/09/01 16:12:40;;;;;;;9.00;5.30;;;;;;;;;;4953808;28;20046;-73
2021/09/01 16:15:08;;;;;;;7.15;4.40;;;;;;;;;;4953790;28;20499;-73
2021/09/01 16:17:41;;;;;;;10.30;5.05;;;;;;;;;;4976235;28;20046;-73
2021/09/01 16:20:10;;;;;;;10.15;4.80;;;;;;;;;;4975649;28;20170;-73
2021/09/01 16:22:46;;;;;;;8.68;5.18;;;;;;;;;;4980511;28;20046;-72
2021/09/01 16:25:14;;;;;;;7.95;4.93;;;;;;;;;;4958943;28;20090;-74
2021/09/01 16:27:42;;;;;;;9.80;5.18;;;;;;;;;;4976704;28;20669;-74
2021/09/01 16:30:10;;;;;;;11.45;4.57;;;;;;;;;;4959145;28;20076;-73
2021/09/01 16:32:38;;;;;;;8.73;4.55;;;;;;;;;;4972672;28;20045;-73
2021/09/01 16:35:06;;;;;;;8.57;4.72;;;;;;;;;;4971764;28;20499;-74
2021/09/01 16:37:41;;;;;;;9.15;4.88;;;;;;;;;;4954731;28;20291;-75
2021/09/01 16:40:11;;;;;;;8.95;5.05;;;;;;;;;;4968463;28;20324;-74
2021/09/01 16:42:40;;;;;;;6.97;4.75;;;;;;;;;;4971195;28;20038;-74
2021/09/01 16:45:08;;;;;;;6.63;4.43;;;;;;;;;;4971312;28;20051;-75
2021/09/01 16:47:36;;;;;;;10.32;4.82;;;;;;;;;;4953926;28;20042;-74
2021/09/01 16:50:04;;;;;;;9.02;4.90;;;;;;;;;;4952676;28;20130;-71
2021/09/01 16:52:33;;;;;;;9.77;5.07;;;;;;;;;;4971122;28;20046;-71
2021/09/01 16:55:04;;;;;;;7.65;4.43;;;;;;;;;;4970897;28;20415;-70
2021/09/01 16:57:35;;;;;;;7.88;5.00;;;;;;;;;;4968959;28;20118;-71
2021/09/01 17:00:03;;;;;;;11.00;5.18;;;;;;;;;;4971511;28;20035;-71
2021/09/01 17:02:35;;;;;;;8.48;5.35;;;;;;;;;;4974288;28;20097;-70
2021/09/01 17:05:03;;;;;;;14.27;4.85;;;;;;;;;;4974446;28;20043;-72
2021/09/01 17:07:31;;;;;;;14.45;4.80;;;;;;;;;;4957305;28;20046;-71
2021/09/01 17:10:00;;;;;;;12.10;4.55;;;;;;;;;;4972967;28;20046;-71
2021/09/01 17:12:27;;;;;;;6.63;4.57;;;;;;;;;;4972325;28;20039;-71
2021/09/01 17:14:56;;;;;;;7.57;4.75;;;;;;;;;;4955025;28;20051;-71
2021/09/01 17:17:24;;;;;;;13.70;5.50;;;;;;;;;;4953438;28;20419;-71
2021/09/01 17:19:51;;;;;;;16.75;5.32;;;;;;;;;;4971038;28;20039;-71
2021/09/01 17:22:19;;;;;;;11.05;4.63;;;;;;;;;;4970733;28;20039;-70
2021/09/01 17:24:46;;;;;;;13.88;5.25;;;;;;;;;;4969877;28;20042;-70
2021/09/01 17:27:16;;;;;;;15.50;5.05;;;;;;;;;;4971098;28;20435;-70
2021/09/01 17:29:46;;;;;;;12.38;5.20;;;;;;;;;;4970455;28;20042;-70
2021/09/01 17:32:16;;;;;;;12.30;5.38;;;;;;;;;;4971299;28;20233;-71
2021/09/01 17:34:45;;;;;;;10.82;4.60;;;;;;;;;;4970847;28;20047;-70
2021/09/01 17:37:18;;;;;;;11.07;5.30;;;;;;;;;;4971577;28;20488;-70
2021/09/01 17:39:46;;;;;;;7.13;4.80;;;;;;;;;;4971904;28;20043;-71
2021/09/01 17:42:14;;;;;;;12.45;4.88;;;;;;;;;;4973707;28;20521;-70
2021/09/01 17:44:42;;;;;;;9.27;5.53;;;;;;;;;;4956190;28;20042;-70
2021/09/01 17:47:09;;;;;;;9.40;4.57;;;;;;;;;;4974143;28;20043;-71
2021/09/01 17:49:38;;;;;;;17.08;5.47;;;;;;;;;;4974036;28;20039;-70
2021/09/01 17:52:06;;;;;;;11.75;5.05;;;;;;;;;;4956906;28;20058;-71
2021/09/01 17:54:36;;;;;;;11.57;5.50;;;;;;;;;;4956362;28;20047;-71
2021/09/01 17:57:03;;;;;;;10.68;5.55;;;;;;;;;;4975037;28;20086;-71
2021/09/01 17:59:33;;;;;;;8.85;5.55;;;;;;;;;;4974224;28;20125;-71
2021/09/01 18:02:01;;;;;;;9.77;4.97;;;;;;;;;;4957661;28;20499;-71
2021/09/01 18:04:30;;;;;;;7.25;4.90;;;;;;;;;;4974735;28;20454;-70
2021/09/01 18:06:59;;;;;;;10.52;5.50;;;;;;;;;;4973670;28;20118;-70
2021/09/01 18:09:26;;;;;;;8.35;5.15;;;;;;;;;;4972533;28;20053;-71
2021/09/01 18:11:53;;;;;;;10.48;5.47;;;;;;;;;;4974121;28;20049;-71
2021/09/01 18:14:21;;;;;;;8.43;5.38;;;;;;;;;;4956787;28;20403;-71
2021/09/01 18:16:49;;;;;;;8.13;5.70;;;;;;;;;;4955914;28;20121;-72
2021/09/01 18:19:16;;;;;;;10.60;5.50;;;;;;;;;;4973411;28;20046;-70
2021/09/01 18:21:44;;;;;;;9.68;5.30;;;;;;;;;;4956078;28;20538;-70
2021/09/01 18:24:13;;;;;;;11.15;5.93;;;;;;;;;;4972425;28;20066;-70
2021/09/01 18:26:40;;;;;;;11.77;6.07;;;;;;;;;;4972839;28;20049;-70
2021/09/01 18:29:08;;;;;;;12.48;6.13;;;;;;;;;;4973939;28;20045;-70
2021/09/01 18:31:35;;;;;;;9.52;5.72;;;;;;;;;;4958597;28;20374;-70
2021/09/01 18:34:02;;;;;;;15.85;6.93;;;;;;;;;;4974539;28;20499;-70
2021/09/01 18:36:30;;;;;;;12.90;5.75;;;;;;;;;;4973853;28;20049;-70
2021/09/01 18:38:59;;;;;;;11.25;5.80;;;;;;;;;;4956933;28;20098;-70
2021/09/01 18:41:29;;;;;;;9.60;6.00;;;;;;;;;;4974204;28;20043;-71
2021/09/01 18:43:58;;;;;;;11.82;5.82;;;;;;;;;;4974092;28;20051;-70
2021/09/01 18:46:26;;;;;;;12.70;6.00;;;;;;;;;;4973678;28;20050;-71
2021/09/01 18:48:53;;;;;;;11.27;7.22;;;;;;;;;;4956451;28;20043;-71
2021/09/01 18:51:20;;;;;;;12.25;6.25;;;;;;;;;;4971899;28;20094;-69
2021/09/01 18:53:48;;;;;;;13.32;6.80;;;;;;;;;;4971914;28;20043;-70
2021/09/01 18:56:16;;;;;;;15.00;6.85;;;;;;;;;;4973653;28;20051;-70
2021/09/01 18:58:44;;;;;;;12.88;7.32;;;;;;;;;;4971794;28;20388;-69
2021/09/01 19:01:13;;;;;;;15.55;7.18;;;;;;;;;;4972849;28;20415;-70
2021/09/01 19:03:44;;;;;;;10.43;6.72;;;;;;;;;;4955378;28;20102;-70
2021/09/01 19:06:14;;;;;;;13.45;7.47;;;;;;;;;;4971967;28;20054;-70
2021/09/01 19:08:45;;;;;;;11.05;7.53;;;;;;;;;;4972361;28;20047;-69
2021/09/01 19:11:13;;;;;;;8.75;7.68;;;;;;;;;;4973198;28;20109;-69
2021/09/01 19:13:43;;;;;;;16.85;7.70;;;;;;;;;;4973041;28;20042;-69
2021/09/01 19:16:11;;;;;;;9.77;7.10;;;;;;;;;;4972377;28;20403;-69
2021/09/01 19:18:39;;;;;;;11.20;6.90;;;;;;;;;;4972031;28;20041;-69
2021/09/01 19:21:06;;;;;;;13.07;7.70;;;;;;;;;;4972902;28;20507;-69
2021/09/01 19:23:34;;;;;;;12.30;7.28;;;;;;;;;;4971831;28;20046;-68
2021/09/01 19:26:01;;;;;;;13.30;7.28;;;;;;;;;;4972848;28;20043;-69
2021/09/01 19:28:30;;;;;;;17.40;7.90;;;;;;;;;;4954586;28;20086;-69
2021/09/01 19:30:58;;;;;;;11.60;7.65;;;;;;;;;;4971980;28;20043;-69